createdAt,value
2022-10-20T00:01:44.976Z,8.86
2022-10-20T00:04:11.443Z,8.85
2022-10-20T00:06:37.993Z,8.84
2022-10-20T00:09:05.429Z,8.85
2022-10-20T00:11:32.059Z,8.84
2022-10-20T00:13:59.617Z,8.82
2022-10-20T00:16:28.602Z,8.83
2022-10-20T00:18:55.915Z,8.83
2022-10-20T00:21:24.999Z,8.84
2022-10-20T00:23:51.876Z,8.82
2022-10-20T00:26:24.019Z,8.81
2022-10-20T00:28:51.419Z,8.81
2022-10-20T00:31:18.979Z,8.81
2022-10-20T00:33:46.011Z,8.77
2022-10-20T00:36:14.184Z,8.77
2022-10-20T00:38:40.670Z,8.75
2022-10-20T00:41:07.845Z,8.74
2022-10-20T00:43:48.919Z,8.71
2022-10-20T00:46:18.471Z,8.70
2022-10-20T00:48:48.377Z,8.68
2022-10-20T00:51:16.774Z,8.67
2022-10-20T00:53:45.331Z,8.66
2022-10-20T00:56:12.643Z,8.64
2022-10-20T00:58:39.399Z,8.65
2022-10-20T01:01:05.913Z,8.64
2022-10-20T01:03:38.289Z,8.64
2022-10-20T01:06:04.945Z,8.63
2022-10-20T01:08:31.538Z,8.63
2022-10-20T01:11:16.459Z,8.61
2022-10-20T01:13:59.629Z,8.60
2022-10-20T01:16:38.977Z,8.60
2022-10-20T01:19:47.586Z,8.58
2022-10-20T01:22:42.440Z,8.58
2022-10-20T01:25:25.544Z,8.55
2022-10-20T01:28:22.828Z,8.53
2022-10-20T01:30:54.166Z,8.52
2022-10-20T01:33:29.705Z,8.48
2022-10-20T01:36:04.280Z,8.48
2022-10-20T01:38:33.228Z,8.46
2022-10-20T01:41:02.756Z,8.44
2022-10-20T01:43:32.880Z,8.45
2022-10-20T01:46:00.119Z,8.46
2022-10-20T01:48:29.844Z,8.44
2022-10-20T01:50:56.387Z,8.43
2022-10-20T01:53:22.850Z,8.43
2022-10-20T01:55:54.391Z,8.42
2022-10-20T01:58:23.860Z,8.42
2022-10-20T02:00:51.740Z,8.39
2022-10-20T02:03:29.927Z,8.37
2022-10-20T02:06:05.873Z,8.36
2022-10-20T02:08:46.006Z,8.36
2022-10-20T02:11:22.517Z,8.35
2022-10-20T02:13:49.993Z,8.33
2022-10-20T02:16:22.316Z,8.32
2022-10-20T02:18:48.977Z,8.31
2022-10-20T02:25:03.135Z,8.27
2022-10-20T02:27:33.709Z,8.27
2022-10-20T02:30:12.228Z,8.27
2022-10-20T02:32:40.978Z,8.26
2022-10-20T02:35:10.633Z,8.27
2022-10-20T02:37:37.244Z,8.26
2022-10-20T02:40:04.601Z,8.24
2022-10-20T02:42:31.143Z,8.22
2022-10-20T02:44:57.710Z,8.20
2022-10-20T02:47:24.186Z,8.18
2022-10-20T02:49:50.670Z,8.18
2022-10-20T02:52:17.125Z,8.16
2022-10-20T02:54:43.691Z,8.14
2022-10-20T02:57:10.214Z,8.12
2022-10-20T02:59:36.674Z,8.11
2022-10-20T03:02:03.707Z,8.07
2022-10-20T03:04:30.336Z,8.05
2022-10-20T03:06:56.786Z,8.03
2022-10-20T03:09:23.276Z,8.01
2022-10-20T03:11:49.732Z,7.99
2022-10-20T03:14:16.215Z,7.99
2022-10-20T03:16:42.722Z,7.97
2022-10-20T03:19:11.558Z,7.96
2022-10-20T03:21:38.548Z,7.96
2022-10-20T03:24:05.348Z,7.94
2022-10-20T03:26:31.815Z,7.92
2022-10-20T03:28:58.527Z,7.92
2022-10-20T03:31:25.022Z,7.90
2022-10-20T03:33:51.513Z,7.89
2022-10-20T03:36:18.025Z,7.88
2022-10-20T03:38:44.490Z,7.85
2022-10-20T03:41:11.319Z,7.85
2022-10-20T03:43:41.178Z,7.83
2022-10-20T03:46:14.983Z,7.83
2022-10-20T03:52:37.617Z,7.81
2022-10-20T03:55:04.758Z,7.80
2022-10-20T03:57:31.198Z,7.80
2022-10-20T03:59:57.740Z,7.79
2022-10-20T04:02:39.381Z,7.80
2022-10-20T04:05:06.593Z,7.82
2022-10-20T04:07:33.219Z,7.81
2022-10-20T04:10:02.203Z,7.82
2022-10-20T04:12:28.762Z,7.83
2022-10-20T04:14:55.274Z,7.83
2022-10-20T04:17:21.796Z,7.86
2022-10-20T04:19:48.245Z,7.86
2022-10-20T04:22:14.735Z,7.87
2022-10-20T04:24:41.286Z,7.86
2022-10-20T04:27:07.952Z,7.89
2022-10-20T04:29:34.773Z,7.86
2022-10-20T04:32:01.228Z,7.88
2022-10-20T04:34:27.719Z,7.88
2022-10-20T04:36:54.187Z,7.86
2022-10-20T04:39:20.859Z,7.85
2022-10-20T04:41:47.312Z,7.84
2022-10-20T04:44:13.796Z,7.83
2022-10-20T04:46:40.217Z,7.83
2022-10-20T04:49:06.667Z,7.81
2022-10-20T04:51:33.097Z,7.79
2022-10-20T04:53:59.544Z,7.78
2022-10-20T04:56:25.982Z,7.78
2022-10-20T04:58:56.889Z,7.78
2022-10-20T05:01:25.967Z,7.77
2022-10-20T05:03:52.457Z,7.77
2022-10-20T05:06:19.805Z,7.77
2022-10-20T05:08:49.129Z,7.75
2022-10-20T05:11:16.478Z,7.72
2022-10-20T05:13:43.261Z,7.73
2022-10-20T05:16:10.178Z,7.69
2022-10-20T05:18:37.170Z,7.69
2022-10-20T05:21:17.599Z,7.68
2022-10-20T05:23:44.563Z,7.68
2022-10-20T05:26:16.886Z,7.66
2022-10-20T05:28:45.319Z,7.66
2022-10-20T05:31:11.770Z,7.64
2022-10-20T05:33:38.666Z,7.63
2022-10-20T05:36:13.848Z,7.64
2022-10-20T05:38:41.566Z,7.64
2022-10-20T05:41:13.236Z,7.63
2022-10-20T05:43:39.682Z,7.62
2022-10-20T05:46:06.883Z,7.64
2022-10-20T05:48:33.558Z,7.62
2022-10-20T05:51:13.555Z,7.62
2022-10-20T05:53:41.679Z,7.62
2022-10-20T05:56:09.958Z,7.63
2022-10-20T05:58:36.915Z,7.63
2022-10-20T06:01:19.240Z,7.65
2022-10-20T06:03:50.625Z,7.66
2022-10-20T06:06:18.189Z,7.67
2022-10-20T06:08:45.222Z,7.67
2022-10-20T06:11:13.525Z,7.68
2022-10-20T06:13:39.944Z,7.67
2022-10-20T06:16:11.629Z,7.68
2022-10-20T06:18:38.808Z,7.68
2022-10-20T06:21:07.529Z,7.69
2022-10-20T06:23:34.365Z,7.70
2022-10-20T06:26:06.746Z,7.72
2022-10-20T06:28:34.741Z,7.76
2022-10-20T06:31:01.634Z,7.76
2022-10-20T06:33:30.127Z,7.76
2022-10-20T06:36:03.085Z,7.76
2022-10-20T06:38:29.511Z,7.76
2022-10-20T06:40:56.057Z,7.78
2022-10-20T06:43:22.793Z,7.80
2022-10-20T06:46:00.647Z,7.81
2022-10-20T06:48:27.778Z,7.84
2022-10-20T06:50:58.322Z,7.86
2022-10-20T06:53:25.711Z,7.87
2022-10-20T06:55:59.360Z,7.88
2022-10-20T06:58:26.879Z,7.91
2022-10-20T07:01:08.325Z,7.93
2022-10-20T07:03:37.912Z,7.95
2022-10-20T07:06:05.634Z,7.95
2022-10-20T07:08:34.264Z,7.98
2022-10-20T07:11:06.555Z,8.00
2022-10-20T07:13:34.221Z,8.01
2022-10-20T07:16:01.072Z,8.05
2022-10-20T07:18:28.902Z,8.09
2022-10-20T07:21:00.090Z,8.14
2022-10-20T07:23:27.680Z,8.18
2022-10-20T07:26:04.708Z,8.23
2022-10-20T07:28:31.703Z,8.25
2022-10-20T07:31:02.900Z,8.27
2022-10-20T07:33:29.329Z,8.32
2022-10-20T07:35:55.756Z,8.35
2022-10-20T07:38:22.158Z,8.38
2022-10-20T07:40:48.564Z,8.39
2022-10-20T07:43:14.997Z,8.42
2022-10-20T07:45:41.462Z,8.45
2022-10-20T07:48:09.790Z,8.47
2022-10-20T07:50:37.218Z,8.49
2022-10-20T07:53:06.269Z,8.53
2022-10-20T07:55:38.619Z,8.53
2022-10-20T07:58:05.838Z,8.55
2022-10-20T08:00:32.366Z,8.61
2022-10-20T08:02:58.828Z,8.66
2022-10-20T08:05:25.409Z,8.68
2022-10-20T08:07:52.253Z,8.70
2022-10-20T08:10:18.683Z,8.75
2022-10-20T08:12:45.172Z,8.76
2022-10-20T08:15:11.658Z,8.77
2022-10-20T08:17:40.899Z,8.83
2022-10-20T08:20:21.357Z,8.86
2022-10-20T08:22:50.060Z,8.92
2022-10-20T08:25:16.813Z,8.94
2022-10-20T08:27:43.215Z,9.00
2022-10-20T08:30:23.545Z,9.06
2022-10-20T08:32:52.616Z,9.15
2022-10-20T08:35:19.810Z,9.23
2022-10-20T08:37:46.286Z,9.23
2022-10-20T08:40:16.709Z,9.27
2022-10-20T08:42:45.149Z,9.34
2022-10-20T08:45:15.924Z,9.39
2022-10-20T08:47:43.218Z,9.44
2022-10-20T08:50:12.566Z,9.51
2022-10-20T08:52:40.874Z,9.60
2022-10-20T08:55:07.983Z,9.62
2022-10-20T08:57:36.485Z,9.69
2022-10-20T09:00:21.478Z,9.71
2022-10-20T09:02:49.326Z,9.77
2022-10-20T09:05:19.128Z,9.83
2022-10-20T09:07:48.470Z,9.91
2022-10-20T09:10:33.980Z,9.95
2022-10-20T09:13:01.354Z,10.01
2022-10-20T09:15:28.499Z,10.03
2022-10-20T09:18:09.195Z,10.03
2022-10-20T09:20:44.703Z,10.07
2022-10-20T09:23:39.518Z,10.12
2022-10-20T09:26:02.532Z,10.14
2022-10-20T09:28:42.959Z,10.20
2022-10-20T09:31:33.174Z,10.20
2022-10-20T09:33:59.939Z,10.21
2022-10-20T09:36:30.934Z,10.30
2022-10-20T09:38:57.630Z,10.37
2022-10-20T09:41:28.025Z,10.40
2022-10-20T09:44:01.507Z,10.41
2022-10-20T09:46:37.639Z,10.46
2022-10-20T09:49:04.902Z,10.50
2022-10-20T09:51:31.403Z,10.55
2022-10-20T09:54:03.925Z,10.54
2022-10-20T09:56:35.757Z,10.53
2022-10-20T09:59:04.076Z,10.56
2022-10-20T10:01:30.548Z,10.64
2022-10-20T10:04:01.659Z,10.66
2022-10-20T10:06:32.640Z,10.74
2022-10-20T10:09:01.730Z,10.78
2022-10-20T10:11:34.433Z,10.86
2022-10-20T10:14:01.775Z,10.87
2022-10-20T10:16:28.454Z,10.93
2022-10-20T10:18:58.842Z,10.94
2022-10-20T10:21:25.535Z,10.99
2022-10-20T10:24:02.488Z,11.04
2022-10-20T10:26:39.541Z,11.07
2022-10-20T10:29:16.865Z,11.11
2022-10-20T10:31:51.606Z,11.18
2022-10-20T10:34:17.897Z,11.24
2022-10-20T10:36:44.438Z,11.29
2022-10-20T10:39:13.552Z,11.36
2022-10-20T10:42:07.218Z,11.42
2022-10-20T10:44:43.347Z,11.47
2022-10-20T10:47:09.658Z,11.46
2022-10-20T10:50:08.351Z,11.51
2022-10-20T10:53:01.090Z,11.58
2022-10-20T10:55:51.340Z,11.64
2022-10-20T10:58:24.897Z,11.67
2022-10-20T11:01:09.953Z,11.71
2022-10-20T11:03:48.329Z,11.75
2022-10-20T11:06:19.686Z,11.74
2022-10-20T11:09:10.299Z,11.77
2022-10-20T11:11:55.350Z,11.80
2022-10-20T11:14:31.673Z,11.82
2022-10-20T11:17:07.541Z,11.84
2022-10-20T11:20:00.474Z,11.85
2022-10-20T11:22:33.901Z,11.88
2022-10-20T11:25:22.310Z,11.92
2022-10-20T11:27:49.198Z,11.97
2022-10-20T11:30:22.788Z,11.99
2022-10-20T11:33:15.598Z,12.01
2022-10-20T11:35:51.138Z,12.07
2022-10-20T11:38:23.727Z,12.16
2022-10-20T11:40:59.257Z,12.15
2022-10-20T11:43:31.038Z,12.21
2022-10-20T11:45:57.338Z,12.28
2022-10-20T11:48:40.191Z,12.32
2022-10-20T11:51:16.695Z,12.32
2022-10-20T11:54:07.804Z,12.42
2022-10-20T11:57:02.067Z,12.51
2022-10-20T11:59:53.184Z,12.50
2022-10-20T12:02:58.542Z,12.53
2022-10-20T12:05:46.708Z,12.57
2022-10-20T12:08:37.615Z,12.59
2022-10-20T12:11:15.189Z,12.62
2022-10-20T12:13:58.748Z,12.70
2022-10-20T12:16:59.314Z,12.80
2022-10-20T12:19:30.062Z,12.91
2022-10-20T12:22:14.677Z,13.02
2022-10-20T12:24:43.426Z,13.07
2022-10-20T12:27:09.809Z,13.16
2022-10-20T12:29:36.099Z,13.25
2022-10-20T12:32:21.317Z,13.34
2022-10-20T12:34:49.200Z,13.43
2022-10-20T12:37:20.652Z,13.52
2022-10-20T12:39:47.319Z,13.64
2022-10-20T12:42:25.818Z,13.68
2022-10-20T12:44:52.586Z,13.69
2022-10-20T12:47:27.534Z,13.70
2022-10-20T12:50:00.748Z,13.75
2022-10-20T12:52:30.007Z,13.85
2022-10-20T12:55:21.962Z,13.91
2022-10-20T12:57:48.750Z,13.86
2022-10-20T13:00:24.282Z,13.87
2022-10-20T13:02:55.305Z,13.96
2022-10-20T13:05:43.128Z,13.91
2022-10-20T13:08:19.542Z,14.03
2022-10-20T13:10:46.737Z,14.05
2022-10-20T13:13:13.067Z,14.05
2022-10-20T13:15:42.462Z,14.08
2022-10-20T13:18:12.017Z,14.10
2022-10-20T13:20:58.292Z,14.09
2022-10-20T13:23:39.513Z,14.10
2022-10-20T13:26:17.009Z,14.14
2022-10-20T13:28:48.053Z,14.16
2022-10-20T13:31:19.009Z,14.15
2022-10-20T13:34:09.757Z,14.16
2022-10-20T13:36:46.157Z,14.17
2022-10-20T13:39:22.353Z,14.18
2022-10-20T13:42:03.942Z,14.20
2022-10-20T13:44:56.372Z,14.18
2022-10-20T13:47:34.274Z,14.21
2022-10-20T13:50:06.116Z,14.25
2022-10-20T13:52:41.272Z,14.22
2022-10-20T13:55:08.339Z,14.24
2022-10-20T13:57:35.600Z,14.24
2022-10-20T14:00:26.769Z,14.30
2022-10-20T14:02:54.829Z,14.26
2022-10-20T14:05:22.582Z,14.30
2022-10-20T14:07:50.641Z,14.37
2022-10-20T14:10:22.480Z,14.38
2022-10-20T14:12:48.934Z,14.40
2022-10-20T14:15:23.371Z,14.37
2022-10-20T14:18:02.491Z,14.39
2022-10-20T14:20:30.186Z,14.39
2022-10-20T14:22:58.870Z,14.36
2022-10-20T14:25:26.472Z,14.37
2022-10-20T14:27:54.341Z,14.31
2022-10-20T14:30:21.001Z,14.29
2022-10-20T14:32:48.929Z,14.29
2022-10-20T14:35:39.421Z,14.24
2022-10-20T14:38:14.588Z,14.22
2022-10-20T14:40:41.278Z,14.20
2022-10-20T14:43:17.424Z,14.17
2022-10-20T14:45:59.983Z,14.14
2022-10-20T14:48:32.404Z,14.12
2022-10-20T14:50:58.884Z,14.13
2022-10-20T14:53:34.436Z,14.10
2022-10-20T14:56:02.570Z,14.10
2022-10-20T14:58:36.888Z,14.06
2022-10-20T15:01:31.861Z,14.07
2022-10-20T15:04:04.697Z,14.05
2022-10-20T15:06:31.531Z,14.02
2022-10-20T15:08:58.099Z,13.98
2022-10-20T15:11:26.493Z,13.98
2022-10-20T15:13:54.429Z,13.99
2022-10-20T15:16:39.801Z,13.97
2022-10-20T15:19:35.918Z,13.91
2022-10-20T15:22:10.302Z,13.90
2022-10-20T15:24:37.436Z,13.91
2022-10-20T15:27:04.470Z,13.89
2022-10-20T15:29:31.768Z,13.86
2022-10-20T15:31:58.681Z,13.83
2022-10-20T15:34:25.573Z,13.84
2022-10-20T15:36:51.994Z,13.82
2022-10-20T15:39:18.416Z,13.78
2022-10-20T15:41:45.663Z,13.79
2022-10-20T15:44:21.284Z,13.77
2022-10-20T15:46:48.924Z,13.75
2022-10-20T15:49:15.514Z,13.76
2022-10-20T15:51:44.484Z,13.76
2022-10-20T15:54:19.349Z,13.75
2022-10-20T15:56:45.956Z,13.74
2022-10-20T15:59:12.359Z,13.72
2022-10-20T16:01:38.864Z,13.69
2022-10-20T16:04:28.614Z,13.64
2022-10-20T16:06:59.067Z,13.60
2022-10-20T16:09:26.885Z,13.55
2022-10-20T16:11:53.315Z,13.55
2022-10-20T16:14:19.824Z,13.50
2022-10-20T16:16:46.248Z,13.44
2022-10-20T16:19:14.463Z,13.43
2022-10-20T16:21:41.366Z,13.42
2022-10-20T16:24:07.926Z,13.39
2022-10-20T16:26:34.350Z,13.38
2022-10-20T16:29:00.787Z,13.36
2022-10-20T16:31:27.313Z,13.35
2022-10-20T16:33:53.712Z,13.32
2022-10-20T16:36:21.576Z,13.32
2022-10-20T16:38:48.091Z,13.27
2022-10-20T16:41:15.681Z,13.29
2022-10-20T16:43:44.631Z,13.25
2022-10-20T16:46:12.521Z,13.25
2022-10-20T16:48:41.432Z,13.23
2022-10-20T16:51:11.573Z,13.23
2022-10-20T16:53:38.043Z,13.22
2022-10-20T16:56:05.083Z,13.22
2022-10-20T16:58:31.538Z,13.20
2022-10-20T17:01:08.745Z,13.20
2022-10-20T17:03:36.046Z,13.17
2022-10-20T17:06:05.395Z,13.17
2022-10-20T17:08:32.749Z,13.17
2022-10-20T17:11:01.583Z,13.18
2022-10-20T17:13:28.790Z,13.13
2022-10-20T17:15:55.856Z,13.16
2022-10-20T17:18:23.750Z,13.14
2022-10-20T17:20:54.174Z,13.15
2022-10-20T17:23:22.365Z,13.15
2022-10-20T17:25:50.015Z,13.13
2022-10-20T17:28:17.026Z,13.13
2022-10-20T17:30:44.763Z,13.12
2022-10-20T17:33:11.673Z,13.10
2022-10-20T17:35:38.432Z,13.08
2022-10-20T17:38:05.579Z,13.07
2022-10-20T17:40:38.560Z,13.05
2022-10-20T17:43:05.038Z,13.02
2022-10-20T17:45:33.898Z,13.02
2022-10-20T17:48:02.822Z,13.01
2022-10-20T17:50:29.240Z,13.01
2022-10-20T17:52:55.666Z,13.00
2022-10-20T17:55:22.084Z,12.97
2022-10-20T17:57:48.484Z,12.96
2022-10-20T18:00:22.783Z,12.95
2022-10-20T18:02:53.372Z,12.96
2022-10-20T18:05:20.879Z,12.97
2022-10-20T18:07:47.341Z,12.97
2022-10-20T18:10:14.859Z,12.99
2022-10-20T18:12:42.283Z,13.00
2022-10-20T18:15:08.952Z,12.99
2022-10-20T18:17:35.479Z,12.98
2022-10-20T18:20:01.964Z,12.98
2022-10-20T18:22:28.362Z,12.99
2022-10-20T18:24:54.793Z,12.98
2022-10-20T18:27:22.148Z,12.97
2022-10-20T18:29:48.573Z,12.98
2022-10-20T18:32:15.050Z,12.97
2022-10-20T18:34:43.452Z,12.95
2022-10-20T18:37:09.982Z,12.94
2022-10-20T18:39:36.463Z,12.90
2022-10-20T18:42:02.883Z,12.92
2022-10-20T18:47:01.808Z,12.92
2022-10-20T18:49:28.294Z,12.94
2022-10-20T18:51:54.750Z,12.94
2022-10-20T18:54:23.196Z,12.92
2022-10-20T18:56:49.665Z,12.92
2022-10-20T18:59:17.197Z,12.91
2022-10-20T19:01:44.021Z,12.90
2022-10-20T19:04:11.574Z,12.92
2022-10-20T19:06:42.121Z,12.91
2022-10-20T19:09:11.714Z,12.91
2022-10-20T19:11:39.519Z,12.89
2022-10-20T19:14:09.469Z,12.90
2022-10-20T19:16:37.030Z,12.87
2022-10-20T19:19:06.118Z,12.88
2022-10-20T19:21:33.463Z,12.84
2022-10-20T19:24:20.304Z,12.85
2022-10-20T19:26:56.934Z,12.85
2022-10-20T19:29:34.987Z,12.81
2022-10-20T19:32:02.395Z,12.81
2022-10-20T19:34:32.754Z,12.78
2022-10-20T19:36:59.516Z,12.74
2022-10-20T19:39:29.581Z,12.73
2022-10-20T19:41:58.041Z,12.73
2022-10-20T19:44:24.541Z,12.71
2022-10-20T19:46:53.922Z,12.72
2022-10-20T19:49:21.277Z,12.72
2022-10-20T19:51:47.773Z,12.74
2022-10-20T19:54:14.807Z,12.71
2022-10-20T19:56:41.366Z,12.73
2022-10-20T19:59:08.615Z,12.72
2022-10-20T20:01:35.562Z,12.73
2022-10-20T20:04:02.011Z,12.72
2022-10-20T20:06:28.820Z,12.71
2022-10-20T20:09:01.692Z,12.68
2022-10-20T20:11:30.879Z,12.67
2022-10-20T20:14:01.440Z,12.67
2022-10-20T20:16:29.126Z,12.65
2022-10-20T20:18:55.666Z,12.65
2022-10-20T20:21:22.973Z,12.64
2022-10-20T20:23:59.837Z,12.64
2022-10-20T20:26:32.901Z,12.62
2022-10-20T20:28:59.815Z,12.60
2022-10-20T20:31:27.072Z,12.62
2022-10-20T20:33:54.174Z,12.60
2022-10-20T20:36:20.985Z,12.57
2022-10-20T20:38:47.427Z,12.54
2022-10-20T20:41:16.520Z,12.49
2022-10-20T20:43:45.279Z,12.44
2022-10-20T20:46:14.216Z,12.39
2022-10-20T20:48:40.674Z,12.35
2022-10-20T20:51:07.119Z,12.32
2022-10-20T20:53:37.369Z,12.29
2022-10-20T20:56:06.170Z,12.25
2022-10-20T20:58:32.872Z,12.24
2022-10-20T21:01:04.302Z,12.22
2022-10-20T21:03:31.539Z,12.20
2022-10-20T21:06:05.587Z,12.18
2022-10-20T21:08:33.640Z,12.18
2022-10-20T21:11:14.898Z,12.16
2022-10-20T21:13:42.340Z,12.15
2022-10-20T21:16:26.535Z,12.13
2022-10-20T21:18:55.340Z,12.12
2022-10-20T21:21:27.202Z,12.12
2022-10-20T21:23:54.089Z,12.11
2022-10-20T21:26:21.881Z,12.10
2022-10-20T21:28:49.135Z,12.10
2022-10-20T21:31:18.486Z,12.09
2022-10-20T21:33:45.798Z,12.06
2022-10-20T21:36:14.620Z,12.05
2022-10-20T21:38:42.255Z,12.04
2022-10-20T21:41:11.430Z,12.02
2022-10-20T21:43:40.755Z,11.99
2022-10-20T21:46:08.965Z,12.00
2022-10-20T21:51:14.585Z,11.95
2022-10-20T21:53:41.572Z,11.96
2022-10-20T21:56:08.425Z,11.96
2022-10-20T21:58:35.684Z,11.95
2022-10-20T22:01:13.098Z,11.96
2022-10-20T22:03:40.048Z,11.97
2022-10-20T22:06:08.300Z,11.97
2022-10-20T22:08:39.447Z,11.96
2022-10-20T22:11:08.337Z,11.94
2022-10-20T22:13:34.888Z,11.94
2022-10-20T22:16:01.461Z,11.94
2022-10-20T22:18:28.173Z,11.94
2022-10-20T22:20:54.606Z,11.93
2022-10-20T22:23:21.028Z,11.93
2022-10-20T22:25:51.515Z,11.93
2022-10-20T22:28:19.049Z,11.92
2022-10-20T22:30:45.458Z,11.93
2022-10-20T22:33:11.871Z,11.92
2022-10-20T22:35:38.270Z,11.92
2022-10-20T22:38:04.693Z,11.93
2022-10-20T22:40:31.088Z,11.92
2022-10-20T22:42:57.560Z,11.94
2022-10-20T22:45:23.971Z,11.94
2022-10-20T22:47:50.447Z,11.94
2022-10-20T22:50:16.923Z,11.95
2022-10-20T22:52:43.339Z,11.95
2022-10-20T22:55:09.756Z,11.96
2022-10-20T22:57:36.169Z,11.97
2022-10-20T23:00:04.549Z,11.96
2022-10-20T23:02:30.951Z,11.97
2022-10-20T23:04:57.366Z,11.97
2022-10-20T23:07:24.184Z,11.99
2022-10-20T23:09:50.704Z,12.00
2022-10-20T23:12:17.128Z,11.99
2022-10-20T23:14:43.553Z,11.98
2022-10-20T23:17:09.961Z,11.99
2022-10-20T23:19:36.357Z,12.00
2022-10-20T23:22:02.768Z,12.02
2022-10-20T23:24:29.192Z,12.03
2022-10-20T23:26:57.504Z,12.04
2022-10-20T23:29:24.247Z,12.04
2022-10-20T23:31:50.673Z,12.07
2022-10-20T23:34:17.143Z,12.07
2022-10-20T23:36:43.574Z,12.08
2022-10-20T23:39:10.036Z,12.11
2022-10-20T23:41:36.449Z,12.11
2022-10-20T23:44:02.877Z,12.13
2022-10-20T23:46:32.274Z,12.13
2022-10-20T23:48:59.260Z,12.14
2022-10-20T23:51:25.727Z,12.15
2022-10-20T23:53:52.324Z,12.11
2022-10-20T23:56:18.775Z,12.14
2022-10-20T23:58:45.187Z,12.14
